Terminal Aerodrome Forecast
Issued by NWS

Home | Current Version | Previous Version | Text Only | Print | Product List | Glossary On
Versions: 1 2 3 4 5 6 7 8 9 10 11 12
000
FTUS46 KMFR 290557
TAFRBG
TAF
KRBG 290557Z 2906/3006 35005KT P6SM FEW050 BKN150
     FM290900 VRB03KT P6SM -SHRA FEW020 BKN060 OVC140 WS020/19045KT
     FM291200 34007KT 4SM RA BKN035 OVC050 WS020/22055KT
     FM291500 23007KT P6SM -SHRA SCT025 BKN040 BKN060
     FM291900 21012KT P6SM VCSH BKN040 BKN080=

USA.gov is the U.S. government's official web portal to all federal, state and local government web resources and services.